METAR Data
IDs: Format: Raw Decoded Include TAF

Data at: 2158 UTC 18 Sep 2018

KTFP 182135Z AUTO 14006KT 10SM CLR 31/24 A2991 RMK AO2 LTG DSNT SW T03090241 PNO
KTFP 182115Z AUTO 14007KT 10SM CLR 31/24 A2991 RMK AO2 T03110241 PNO
KTFP 182055Z AUTO 14008KT 10SM CLR 32/25 A2992 RMK AO2 T03160246 PNO
KTFP 182035Z AUTO 16007KT 10SM SCT024 31/25 A2992 RMK AO2 T03120246 PNO
KTFP 182015Z AUTO 15006KT 10SM SCT025 32/24 A2992 RMK AO2 T03180244 PNO
KTFP 181955Z AUTO 15006KT 10SM SCT025 32/25 A2993 RMK AO2 T03240245 PNO
KTFP 181935Z AUTO 15007KT 10SM SCT025 32/24 A2994 RMK AO2 T03180243 PNO
KTFP 181915Z AUTO 16006KT 10SM CLR 32/24 A2994 RMK AO2 T03200242 PNO
KTFP 181855Z AUTO 15008KT 10SM CLR 32/25 A2994 RMK AO2 T03230245 PNO
KTFP 181835Z AUTO 17007KT 10SM CLR 32/24 A2995 RMK AO2 T03240241 PNO
KTFP 181815Z AUTO 17006KT 10SM CLR 32/24 A2996 RMK AO2 T03210240 PNO
KTFP 181755Z AUTO 13006KT 10SM CLR 32/24 A2997 RMK AO2 T03210237 PNO
KTFP 181735Z AUTO 14005KT 10SM CLR 32/24 A2998 RMK AO2 T03210242 PNO
KTFP 181715Z AUTO 16006KT 10SM CLR 32/24 A2998 RMK AO2 T03190240 PNO
KTFP 181655Z AUTO 16006KT 10SM CLR 32/24 A2999 RMK AO2 T03200235 PNO
KTFP 181635Z AUTO 13005KT 10SM SCT026 32/24 A2999 RMK AO2 T03170239 PNO
KTFP 181615Z AUTO 00000KT 10SM SCT024 32/24 A2999 RMK AO2 T03160242 PNO
KTFP 181555Z AUTO 17004KT 10SM SCT020 31/25 A2999 RMK AO2 T03130250 PNO
KTFP 181535Z AUTO 22003KT 10SM CLR 30/26 A2999 RMK AO2 T03030260 PNO
KTFP 181515Z AUTO 00000KT 10SM CLR 29/26 A2999 RMK AO2 T02920259 PNO
KTFP 181455Z AUTO 00000KT 10SM SCT055 29/26 A2999 RMK AO2 T02900256 PNO
KTFP 181435Z AUTO 00000KT 10SM SCT014 SCT055 29/26 A2999 RMK AO2 T02890258 PNO
KTFP 181415Z AUTO 24004KT 10SM SCT012 SCT018 SCT060 29/26 A2999 RMK AO2 T02890259 PNO
KTFP 181355Z AUTO 00000KT 10SM SCT012 SCT018 29/26 A2999 RMK AO2 T02880259 PNO
KTFP 181335Z AUTO 00000KT 10SM CLR 28/26 A2999 RMK AO2 T02810260 PNO
KTFP 181315Z AUTO 00000KT 10SM CLR 27/26 A2999 RMK AO2 T02730257 PNO
KTFP 181255Z AUTO 00000KT 10SM CLR 27/25 A2999 RMK AO2 T02690252 PNO
KTFP 181235Z AUTO 00000KT 10SM CLR 27/25 A2998 RMK AO2 T02650250 PNO
KTFP 181215Z AUTO 00000KT 10SM CLR 26/25 A2998 RMK AO2 T02630249 PNO
KTFP 181155Z AUTO 00000KT 10SM CLR 26/25 A2997 RMK AO2 T02630250 PNO
KTFP 181135Z AUTO 00000KT 10SM CLR 27/25 A2997 RMK AO2 T02650250 PNO
KTFP 181115Z AUTO 19003KT 10SM CLR 27/25 A2996 RMK AO2 T02660250 PNO
KTFP 181055Z AUTO 00000KT 10SM CLR 27/25 A2996 RMK AO2 T02650250 PNO
KTFP 181035Z AUTO 00000KT 10SM CLR 27/25 A2995 RMK AO2 T02650251 PNO
KTFP 181015Z AUTO 20003KT 10SM CLR 27/25 A2995 RMK AO2 T02670253 PNO
KTFP 180955Z AUTO 00000KT 10SM CLR 27/25 A2995 RMK AO2 T02670252 PNO
KTFP 180935Z AUTO 00000KT 10SM CLR 27/25 A2995 RMK AO2 T02680252 PNO
KTFP 180915Z AUTO 00000KT 10SM CLR 27/25 A2995 RMK AO2 T02680253 PNO
KTFP 180855Z AUTO 00000KT 10SM CLR 27/25 A2995 RMK AO2 T02680253 PNO
KTFP 180835Z AUTO 00000KT 10SM CLR 27/25 A2994 RMK AO2 T02680253 PNO
KTFP 180815Z AUTO 16003KT 10SM CLR 27/25 A2994 RMK AO2 T02680253 PNO
KTFP 180755Z AUTO 17004KT 10SM CLR 27/25 A2995 RMK AO2 LTG DSNT W T02680253 PNO
KTFP 180735Z AUTO 17004KT 10SM CLR 27/25 A2995 RMK AO2 T02670252 PNO
KTFP 180715Z AUTO 16004KT 10SM CLR 27/25 A2996 RMK AO2 T02670252 PNO
KTFP 180655Z AUTO 00000KT 10SM CLR 27/25 A2996 RMK AO2 T02680254 PNO
KTFP 180635Z AUTO 17003KT 10SM CLR 27/25 A2996 RMK AO2 T02680253 PNO
KTFP 180615Z AUTO 16004KT 10SM CLR 27/25 A2996 RMK AO2 T02700253 PNO
KTFP 180555Z AUTO 14003KT 10SM CLR 27/26 A2996 RMK AO2 T02720256 PNO
KTFP 180535Z AUTO 16004KT 10SM CLR 27/26 A2997 RMK AO2 T02710255 PNO
KTFP 180515Z AUTO 15005KT 10SM CLR 27/26 A2997 RMK AO2 T02710255 PNO
KTFP 180455Z AUTO 14004KT 10SM CLR 27/26 A2997 RMK AO2 T02710255 PNO
KTFP 180435Z AUTO 14004KT 10SM CLR 27/26 A2997 RMK AO2 T02720255 PNO
KTFP 180415Z AUTO 14004KT 10SM CLR 27/26 A2997 RMK AO2 LTG DSNT W T02740256 PNO
KTFP 180355Z AUTO 14004KT 10SM CLR 28/26 A2997 RMK AO2 T02750257 PNO
KTFP 180335Z AUTO 14004KT 10SM CLR 28/26 A2997 RMK AO2 T02760257 PNO
KTFP 180315Z AUTO 13003KT 10SM CLR 28/26 A2998 RMK AO2 T02760257 PNO
KTFP 180255Z AUTO 14003KT 10SM CLR 28/26 A2997 RMK AO2 T02780257 PNO
KTFP 180235Z AUTO 12004KT 10SM CLR 28/26 A2996 RMK AO2 T02780256 PNO
KTFP 180215Z AUTO 13005KT 10SM CLR 28/26 A2995 RMK AO2 T02790256 PNO
KTFP 180155Z AUTO 11004KT 10SM CLR 28/26 A2994 RMK AO2 T02800255 PNO
KTFP 180135Z AUTO 14005KT 10SM CLR 28/26 A2993 RMK AO2 T02810255 PNO
KTFP 180115Z AUTO 12006KT 10SM CLR 28/26 A2993 RMK AO2 T02820255 PNO
KTFP 180055Z AUTO 13005KT 10SM CLR 28/25 A2992 RMK AO2 T02830253 PNO
KTFP 180035Z AUTO 13006KT 10SM CLR 29/26 A2992 RMK AO2 T02860255 PNO
KTFP 180015Z AUTO 12007KT 10SM CLR 29/25 A2991 RMK AO2 T02910253 PNO
KTFP 172355Z AUTO 13009KT 10SM SCT018 30/25 A2991 RMK AO2 T02950252 PNO
KTFP 172335Z AUTO 12007KT 10SM CLR 30/25 A2991 RMK AO2 T02990252 PNO
KTFP 172315Z AUTO 13009KT 10SM CLR 30/25 A2992 RMK AO2 T03020253 PNO
KTFP 172255Z AUTO 13010KT 10SM CLR 31/26 A2991 RMK AO2 T03060255 PNO
KTFP 172235Z AUTO 14010KT 10SM SCT018 31/26 A2991 RMK AO2 T03070255 PNO
KTFP 172215Z AUTO 11010KT 10SM SCT018 SCT023 SCT030 31/26 A2991 RMK AO2 LTG DSNT NW T03100255 PNO
KTFP 172155Z AUTO 12009KT 10SM BKN022 BKN029 31/25 A2991 RMK AO2 T03080251 PNO
KTFP 172135Z AUTO 12009KT 10SM SCT022 BKN028 31/25 A2991 RMK AO2 LTG DSNT NW T03100253 PNO
KTFP 172115Z AUTO 13010KT 10SM SCT020 30/25 A2991 RMK AO2 T03040252 PNO
KTFP 172055Z AUTO 13009KT 10SM SCT022 SCT030 31/25 A2992 RMK AO2 T03090252 PNO
KTFP 172035Z AUTO 14009KT 10SM SCT022 SCT030 32/25 A2993 RMK AO2 LTG DSNT SW T03190249 PNO
KTFP 172015Z AUTO 14008KT 10SM SCT022 SCT030 32/25 A2993 RMK AO2 T03170246 PNO
KTFP 171955Z AUTO 15007KT 10SM SCT020 31/25 A2994 RMK AO2 T03130251 PNO
KTFP 171935Z AUTO 14007KT 10SM SCT020 SCT029 31/25 A2995 RMK AO2 T03070250 PNO
KTFP 171915Z AUTO 13009KT 10SM SCT020 BKN029 31/26 A2995 RMK AO2 T03130255 PNO
KTFP 171855Z AUTO 11009KT 10SM SCT022 SCT031 32/25 A2996 RMK AO2 T03170253 PNO
KTFP 171835Z AUTO 11008KT 10SM SCT019 SCT024 32/26 A2996 RMK AO2 T03160255 PNO
KTFP 171815Z AUTO 10009KT 10SM SCT022 32/26 A2997 RMK AO2 T03210256 PNO
KTFP 171755Z AUTO 13007KT 10SM SCT022 32/25 A2997 RMK AO2 T03180254 PNO
KTFP 171735Z AUTO 12007KT 10SM SCT020 32/26 A2997 RMK AO2 T03170255 PNO
KTFP 171715Z AUTO 13008KT 10SM SCT021 32/26 A2998 RMK AO2 T03150258 PNO
KTFP 171655Z AUTO 12009KT 10SM SCT019 SCT027 31/26 A2999 RMK AO2 T03130259 PNO
KTFP 171635Z AUTO 12008KT 10SM SCT020 SCT027 31/26 A2999 RMK AO2 T03100257 PNO
KTFP 171615Z AUTO 12007KT 10SM SCT016 SCT021 31/25 A2999 RMK AO2 T03100252 PNO
KTFP 171555Z AUTO 11005KT 10SM SCT016 BKN021 31/26 A2999 RMK AO2 T03060257 PNO
KTFP 171535Z AUTO 12006KT 10SM SCT016 SCT021 31/26 A2999 RMK AO2 T03050257 PNO
KTFP 171515Z AUTO 12007KT 10SM SCT014 SCT021 30/26 A2998 RMK AO2 T03010259 PNO
KTFP 171455Z AUTO 11005KT 10SM SCT014 SCT019 30/26 A2998 RMK AO2 T02960260 PNO
KTFP 171435Z AUTO 11003KT 10SM CLR 29/26 A2998 RMK AO2 T02880259 PNO
KTFP 171415Z AUTO 08003KT 10SM CLR 28/26 A2997 RMK AO2 T02800259 PNO
KTFP 171355Z AUTO 08003KT 10SM CLR 27/26 A2997 RMK AO2 T02740256 PNO
KTFP 171335Z AUTO 09003KT 10SM CLR 27/26 A2996 RMK AO2 T02690256 PNO
KTFP 171315Z AUTO 00000KT 10SM CLR 26/25 A2996 RMK AO2 T02620253 PNO
KTFP 171255Z AUTO 09003KT 10SM CLR 26/25 A2995 RMK AO2 T02570247 PNO
KTFP 171235Z AUTO 08003KT 10SM CLR 26/25 A2994 RMK AO2 T02550245 PNO
KTFP 171215Z AUTO 08003KT 10SM CLR 26/25 A2994 RMK AO2 T02550245 PNO
KTFP 171155Z AUTO 00000KT 10SM CLR 26/25 A2994 RMK AO2 T02560246 PNO
KTFP 171135Z AUTO 00000KT 10SM CLR 26/25 A2994 RMK AO2 T02570247 PNO
KTFP 171115Z AUTO 00000KT 10SM CLR 26/25 A2994 RMK AO2 T02580248 PNO
KTFP 171055Z AUTO 00000KT 10SM CLR 26/25 A2993 RMK AO2 T02560246 PNO
KTFP 171035Z AUTO 15003KT 7SM CLR 26/25 A2992 RMK AO2 T02580247 PNO
KTFP 171015Z AUTO 00000KT 10SM CLR 26/25 A2992 RMK AO2 T02590247 PNO